createdAt,value
2023-07-12T00:00:29.352Z,100235.91
2023-07-12T00:03:21.999Z,100233.88
2023-07-12T00:06:37.396Z,100245.00
2023-07-12T00:09:28.999Z,100242.50
2023-07-12T00:12:13.914Z,100231.63
2023-07-12T00:15:05.011Z,100222.69
2023-07-12T00:17:51.320Z,100216.31
2023-07-12T00:20:43.025Z,100226.94
2023-07-12T00:23:34.016Z,100237.78
2023-07-12T00:26:35.051Z,100252.69
2023-07-12T00:29:19.941Z,100246.88
2023-07-12T00:32:12.028Z,100243.34
2023-07-12T00:35:04.013Z,100244.41
2023-07-12T00:37:58.010Z,100245.56
2023-07-12T00:40:56.014Z,100264.00
2023-07-12T00:43:49.008Z,100261.53
2023-07-12T00:46:46.801Z,100285.66
2023-07-12T00:49:38.011Z,100286.63
2023-07-12T00:52:23.142Z,100286.16
2023-07-12T00:55:53.015Z,100283.03
2023-07-12T00:58:45.074Z,100255.63
2023-07-12T01:01:38.082Z,100255.63
2023-07-12T01:04:34.517Z,100252.38
2023-07-12T01:07:28.045Z,100242.06
2023-07-12T01:10:13.649Z,100238.88
2023-07-12T01:13:05.021Z,100246.38
2023-07-12T01:15:51.227Z,100260.84
2023-07-12T01:18:42.064Z,100267.25
2023-07-12T01:21:28.964Z,100277.91
2023-07-12T01:24:22.057Z,100261.78
2023-07-12T01:27:15.543Z,100257.66
2023-07-12T01:30:07.024Z,100255.97
2023-07-12T01:32:53.839Z,100260.81
2023-07-12T01:35:45.020Z,100255.97
2023-07-12T01:38:29.962Z,100252.63
2023-07-12T01:41:22.051Z,100252.22
2023-07-12T01:44:07.440Z,100269.94
2023-07-12T01:46:59.056Z,100273.81
2023-07-12T01:49:44.063Z,100267.25
2023-07-12T01:52:35.044Z,100265.16
2023-07-12T01:55:20.125Z,100246.50
2023-07-12T01:58:12.041Z,100268.72
2023-07-12T02:01:04.127Z,100291.34
2023-07-12T02:03:56.138Z,100289.94
2023-07-12T02:06:48.053Z,100276.19
2023-07-12T02:09:46.033Z,100268.69
2023-07-12T02:12:31.049Z,100274.16
2023-07-12T02:15:24.077Z,100276.31
2023-07-12T02:18:12.948Z,100260.94
2023-07-12T02:21:05.042Z,100268.28
2023-07-12T02:23:56.068Z,100271.56
2023-07-12T02:26:49.046Z,100272.94
2023-07-12T02:29:41.091Z,100304.41
2023-07-12T02:32:34.077Z,100284.44
2023-07-12T02:35:19.961Z,100286.59
2023-07-12T02:38:11.067Z,100301.41
2023-07-12T02:41:03.051Z,100308.44
2023-07-12T02:43:48.652Z,100318.44
2023-07-12T02:46:40.059Z,100323.03
2023-07-12T02:49:24.936Z,100339.66
2023-07-12T02:52:17.062Z,100334.31
2023-07-12T02:55:02.011Z,100339.41
2023-07-12T02:57:53.085Z,100337.19
2023-07-12T03:00:45.075Z,100350.19
2023-07-12T03:03:43.090Z,100337.66
2023-07-12T03:06:34.108Z,100348.44
2023-07-12T03:09:25.094Z,100349.53
2023-07-12T03:12:10.226Z,100349.84
2023-07-12T03:15:02.092Z,100347.63
2023-07-12T03:17:47.564Z,100361.53
2023-07-12T03:20:40.090Z,100372.47
2023-07-12T03:23:25.112Z,100380.09
2023-07-12T03:26:16.092Z,100380.09
2023-07-12T03:29:01.224Z,100381.50
2023-07-12T03:31:53.090Z,100385.41
2023-07-12T03:34:37.919Z,100392.31
2023-07-12T03:37:29.133Z,100397.44
2023-07-12T03:40:14.713Z,100409.28
2023-07-12T03:43:06.104Z,100440.31
2023-07-12T03:45:52.209Z,100445.91
2023-07-12T03:48:44.106Z,100441.19
2023-07-12T03:51:29.212Z,100425.09
2023-07-12T03:54:22.125Z,100421.66
2023-07-12T03:57:06.881Z,100428.06
2023-07-12T03:59:58.086Z,100432.78
2023-07-12T04:03:03.159Z,100436.75
2023-07-12T04:05:58.090Z,100407.03
2023-07-12T04:08:43.152Z,100406.41
2023-07-12T04:11:37.090Z,100402.03
2023-07-12T04:14:22.161Z,100401.53
2023-07-12T04:17:13.101Z,100405.59
2023-07-12T04:19:59.134Z,100399.31
2023-07-12T04:22:50.190Z,100389.19
2023-07-12T04:25:34.992Z,100396.03
2023-07-12T04:28:26.129Z,100389.69
2023-07-12T04:31:12.854Z,100393.72
2023-07-12T04:34:05.127Z,100405.97
2023-07-12T04:36:54.434Z,100419.47
2023-07-12T04:39:46.138Z,100424.09
2023-07-12T04:42:30.899Z,100413.50
2023-07-12T04:45:22.107Z,100419.84
2023-07-12T04:48:07.064Z,100420.22
2023-07-12T04:51:00.109Z,100422.91
2023-07-12T04:53:48.633Z,100426.91
2023-07-12T04:56:41.121Z,100426.31
2023-07-12T04:59:26.220Z,100428.31
2023-07-12T05:02:18.122Z,100431.19
2023-07-12T05:05:12.841Z,100427.91
2023-07-12T05:08:04.117Z,100429.91
2023-07-12T05:10:48.976Z,100436.25
2023-07-12T05:13:41.127Z,100446.06
2023-07-12T05:16:25.948Z,100450.72
2023-07-12T05:19:17.132Z,100446.16
2023-07-12T05:22:01.862Z,100451.13
2023-07-12T05:24:53.126Z,100446.94
2023-07-12T05:27:45.168Z,100459.00
2023-07-12T05:30:32.886Z,100470.75
2023-07-12T05:33:24.124Z,100478.66
2023-07-12T05:36:16.132Z,100482.47
2023-07-12T05:39:01.959Z,100489.63
2023-07-12T05:41:53.138Z,100490.38
2023-07-12T05:44:38.197Z,100503.25
2023-07-12T05:47:29.170Z,100503.13
2023-07-12T05:50:16.979Z,100513.31
2023-07-12T05:53:08.142Z,100531.47
2023-07-12T05:55:57.678Z,100534.88
2023-07-12T05:58:49.144Z,100524.63
2023-07-12T06:01:34.278Z,100527.09
2023-07-12T06:04:33.149Z,100537.47
2023-07-12T06:07:18.524Z,100531.91
2023-07-12T06:10:11.137Z,100534.75
2023-07-12T06:13:03.139Z,100539.59
2023-07-12T06:15:48.069Z,100545.34
2023-07-12T06:18:40.147Z,100542.19
2023-07-12T06:21:25.198Z,100543.91
2023-07-12T06:24:16.174Z,100558.75
2023-07-12T06:27:08.159Z,100547.50
2023-07-12T06:29:53.088Z,100543.88
2023-07-12T06:32:45.197Z,100550.78
2023-07-12T06:35:31.265Z,100540.75
2023-07-12T06:38:24.176Z,100535.44
2023-07-12T06:41:09.113Z,100531.06
2023-07-12T06:44:01.170Z,100528.81
2023-07-12T06:46:46.328Z,100531.97
2023-07-12T06:49:38.142Z,100531.97
2023-07-12T06:52:23.109Z,100524.09
2023-07-12T06:55:15.144Z,100536.41
2023-07-12T06:58:06.168Z,100534.13
2023-07-12T07:00:51.594Z,100525.38
2023-07-12T07:03:50.224Z,100528.69
2023-07-12T07:06:42.165Z,100538.66
2023-07-12T07:09:27.194Z,100538.94
2023-07-12T07:12:18.176Z,100537.41
2023-07-12T07:15:03.290Z,100560.44
2023-07-12T07:17:54.320Z,100551.25
2023-07-12T07:20:41.361Z,100549.56
2023-07-12T07:23:33.185Z,100560.94
2023-07-12T07:26:18.011Z,100565.69
2023-07-12T07:29:09.188Z,100576.81
2023-07-12T07:31:54.027Z,100571.06
2023-07-12T07:34:46.177Z,100572.81
2023-07-12T07:37:31.315Z,100583.53
2023-07-12T07:40:23.174Z,100574.56
2023-07-12T07:43:16.195Z,100588.91
2023-07-12T07:46:01.203Z,100589.22
2023-07-12T07:48:53.197Z,100589.59
2023-07-12T07:51:38.080Z,100586.94
2023-07-12T07:54:30.514Z,100587.16
2023-07-12T07:57:15.748Z,100585.66
2023-07-12T08:00:12.260Z,100583.84
2023-07-12T08:03:04.378Z,100579.28
2023-07-12T08:06:08.205Z,100576.81
2023-07-12T08:08:59.197Z,100576.72
2023-07-12T08:11:50.183Z,100571.28
2023-07-12T08:14:35.159Z,100564.88
2023-07-12T08:17:26.238Z,100562.00
2023-07-12T08:20:12.086Z,100561.25
2023-07-12T08:23:03.211Z,100561.84
2023-07-12T08:25:57.185Z,100561.00
2023-07-12T08:28:42.191Z,100560.16
2023-07-12T08:31:33.417Z,100578.78
2023-07-12T08:34:18.403Z,100589.09
2023-07-12T08:37:10.217Z,100597.28
2023-07-12T08:39:55.067Z,100585.94
2023-07-12T08:42:48.256Z,100582.41
2023-07-12T08:45:41.240Z,100580.66
2023-07-12T08:48:26.354Z,100579.81
2023-07-12T08:51:27.215Z,100572.25
2023-07-12T08:54:32.216Z,100569.94
2023-07-12T08:57:25.890Z,100572.69
2023-07-12T09:00:30.216Z,100577.41
2023-07-12T09:03:21.262Z,100581.84
2023-07-12T09:06:23.206Z,100577.91
2023-07-12T09:09:10.685Z,100569.53
2023-07-12T09:12:02.230Z,100581.16
2023-07-12T09:14:54.808Z,100578.75
2023-07-12T09:17:50.310Z,100591.09
2023-07-12T09:20:40.536Z,100604.44
2023-07-12T09:23:33.217Z,100600.44
2023-07-12T09:26:34.237Z,100603.53
2023-07-12T09:29:32.227Z,100600.22
2023-07-12T09:32:28.760Z,100599.59
2023-07-12T09:35:31.235Z,100583.28
2023-07-12T09:38:31.231Z,100588.53
2023-07-12T09:41:26.266Z,100597.66
2023-07-12T09:44:17.226Z,100598.91
2023-07-12T09:47:12.180Z,100589.53
2023-07-12T09:50:08.255Z,100588.94
2023-07-12T09:52:58.311Z,100592.94
2023-07-12T09:56:05.232Z,100597.25
2023-07-12T09:59:00.624Z,100604.16
2023-07-12T10:02:01.253Z,100604.97
2023-07-12T10:05:08.323Z,100608.13
2023-07-12T10:08:17.264Z,100618.22
2023-07-12T10:11:18.558Z,100603.50
2023-07-12T10:14:15.256Z,100610.56
2023-07-12T10:17:08.280Z,100602.41
2023-07-12T10:19:55.610Z,100599.09
2023-07-12T10:22:49.255Z,100612.97
2023-07-12T10:25:37.576Z,100620.84
2023-07-12T10:28:41.239Z,100601.84
2023-07-12T10:31:58.126Z,100608.91
2023-07-12T10:34:53.282Z,100613.13
2023-07-12T10:37:44.815Z,100599.94
2023-07-12T10:40:43.266Z,100595.25
2023-07-12T10:43:37.275Z,100595.03
2023-07-12T10:46:45.333Z,100609.75
2023-07-12T10:49:41.839Z,100607.97
2023-07-12T10:52:37.279Z,100614.09
2023-07-12T10:56:14.275Z,100611.22
2023-07-12T10:59:03.130Z,100607.47
2023-07-12T11:02:02.282Z,100619.81
2023-07-12T11:05:00.280Z,100604.72
2023-07-12T11:07:52.279Z,100613.56
2023-07-12T11:10:37.945Z,100618.56
2023-07-12T11:13:39.292Z,100605.44
2023-07-12T11:16:32.284Z,100611.50
2023-07-12T11:19:36.034Z,100610.25
2023-07-12T11:22:31.282Z,100609.44
2023-07-12T11:25:38.292Z,100610.63
2023-07-12T11:28:23.719Z,100616.81
2023-07-12T11:31:34.459Z,100609.38
2023-07-12T11:34:31.307Z,100603.94
2023-07-12T11:37:42.322Z,100601.59
2023-07-12T11:40:33.124Z,100603.66
2023-07-12T11:43:30.301Z,100591.00
2023-07-12T11:46:27.353Z,100602.41
2023-07-12T11:49:15.940Z,100601.84
2023-07-12T11:52:19.298Z,100597.25
2023-07-12T11:55:05.826Z,100600.50
2023-07-12T11:57:57.318Z,100592.06
2023-07-12T12:00:48.314Z,100590.72
2023-07-12T12:03:46.378Z,100594.91
2023-07-12T12:06:44.305Z,100611.47
2023-07-12T12:09:36.472Z,100602.19
2023-07-12T12:12:36.368Z,100587.50
2023-07-12T12:15:24.473Z,100602.53
2023-07-12T12:18:23.580Z,100608.78
2023-07-12T12:21:19.437Z,100602.09
2023-07-12T12:24:27.313Z,100601.25
2023-07-12T12:27:26.321Z,100595.56
2023-07-12T12:30:25.546Z,100604.06
2023-07-12T12:33:32.315Z,100607.75
2023-07-12T12:36:25.926Z,100603.06
2023-07-12T12:39:20.410Z,100596.66
2023-07-12T12:42:27.369Z,100592.31
2023-07-12T12:45:12.492Z,100596.78
2023-07-12T12:51:01.846Z,100596.59
2023-07-12T12:53:56.543Z,100588.41
2023-07-12T12:58:06.963Z,100582.94
2023-07-12T13:03:10.268Z,100582.31
2023-07-12T13:06:01.491Z,100581.81
2023-07-12T13:20:23.509Z,100576.94
2023-07-12T13:23:10.127Z,100572.38
2023-07-12T13:26:01.346Z,100568.91
2023-07-12T13:28:53.364Z,100572.47
2023-07-12T13:31:38.510Z,100573.41
2023-07-12T13:36:07.235Z,100562.38
2023-07-12T13:37:46.517Z,100562.25
2023-07-12T13:40:37.106Z,100569.63
2023-07-12T13:45:13.883Z,100562.44
2023-07-12T13:46:37.061Z,100570.16
2023-07-12T13:49:29.375Z,100583.00
2023-07-12T13:52:24.338Z,100579.97
2023-07-12T13:55:17.384Z,100570.81
2023-07-12T14:03:52.399Z,100579.06
2023-07-12T14:06:56.827Z,100577.41
2023-07-12T14:10:03.596Z,100590.78
2023-07-12T14:12:54.614Z,100568.97
2023-07-12T14:15:46.367Z,100592.31
2023-07-12T14:18:31.564Z,100587.59
2023-07-12T14:21:25.376Z,100588.63
2023-07-12T14:24:20.354Z,100593.94
2023-07-12T14:27:12.379Z,100594.44
2023-07-12T14:32:55.746Z,100599.53
2023-07-12T14:35:41.397Z,100607.44
2023-07-12T14:38:32.394Z,100609.50
2023-07-12T14:41:31.365Z,100597.66
2023-07-12T14:44:17.270Z,100584.75
2023-07-12T14:47:09.448Z,100589.88
2023-07-12T14:49:55.040Z,100587.25
2023-07-12T14:52:48.393Z,100585.25
2023-07-12T14:55:33.182Z,100588.13
2023-07-12T14:58:24.402Z,100583.34
2023-07-12T15:01:29.391Z,100577.19
2023-07-12T15:04:28.365Z,100579.47
2023-07-12T15:07:30.822Z,100594.34
2023-07-12T15:10:24.393Z,100573.91
2023-07-12T15:13:09.925Z,100578.03
2023-07-12T15:16:01.405Z,100581.00
2023-07-12T15:18:49.079Z,100575.25
2023-07-12T15:21:40.401Z,100577.66
2023-07-12T15:24:25.688Z,100573.50
2023-07-12T15:27:20.423Z,100577.38
2023-07-12T15:30:05.781Z,100580.84
2023-07-12T15:32:57.525Z,100577.78
2023-07-12T15:35:49.382Z,100581.84
2023-07-12T15:38:34.497Z,100581.97
2023-07-12T15:41:29.416Z,100569.41
2023-07-12T15:44:14.465Z,100564.53
2023-07-12T15:47:06.482Z,100568.44
2023-07-12T15:49:51.499Z,100565.47
2023-07-12T15:52:42.406Z,100571.22
2023-07-12T15:55:27.344Z,100566.72
2023-07-12T15:58:28.432Z,100570.03
2023-07-12T16:01:18.941Z,100574.38
2023-07-12T16:04:10.408Z,100570.13
2023-07-12T16:07:24.405Z,100561.97
2023-07-12T16:10:13.191Z,100565.00
2023-07-12T16:13:04.421Z,100570.28
2023-07-12T16:15:57.449Z,100571.84
2023-07-12T16:18:49.451Z,100574.31
2023-07-12T16:21:34.929Z,100570.19
2023-07-12T16:24:27.424Z,100581.34
2023-07-12T16:27:14.537Z,100577.84
2023-07-12T16:30:06.438Z,100572.09
2023-07-12T16:32:51.461Z,100584.94
2023-07-12T16:35:42.445Z,100584.13
2023-07-12T16:38:29.432Z,100581.34
2023-07-12T16:41:31.543Z,100584.81
2023-07-12T16:44:20.340Z,100588.34
2023-07-12T16:47:11.427Z,100585.31
2023-07-12T16:49:56.394Z,100585.03
2023-07-12T16:52:48.433Z,100590.25
2023-07-12T16:55:34.096Z,100594.50
2023-07-12T16:58:33.445Z,100591.47
2023-07-12T17:01:26.133Z,100592.09
2023-07-12T17:04:23.444Z,100596.56
2023-07-12T17:07:21.452Z,100590.44
2023-07-12T17:10:07.114Z,100592.88
2023-07-12T17:12:58.424Z,100595.41
2023-07-12T17:15:44.460Z,100594.91
2023-07-12T17:18:36.453Z,100601.28
2023-07-12T17:21:21.335Z,100599.03
2023-07-12T17:24:19.446Z,100588.34
2023-07-12T17:27:16.421Z,100598.63
2023-07-12T17:30:01.574Z,100594.16
2023-07-12T17:32:53.475Z,100596.25
2023-07-12T17:35:44.454Z,100589.22
2023-07-12T17:38:35.458Z,100600.56
2023-07-12T17:41:35.514Z,100599.69
2023-07-12T17:44:20.814Z,100599.88
2023-07-12T17:47:20.466Z,100594.41
2023-07-12T17:50:06.144Z,100599.22
2023-07-12T17:52:59.443Z,100600.88
2023-07-12T17:55:48.604Z,100601.75
2023-07-12T17:58:40.474Z,100591.38
2023-07-12T18:01:30.952Z,100602.03
2023-07-12T18:04:22.453Z,100597.66
2023-07-12T18:07:31.562Z,100601.63
2023-07-12T18:10:23.475Z,100605.44
2023-07-12T18:13:21.050Z,100610.00
2023-07-12T18:16:12.698Z,100615.75
2023-07-12T18:18:57.799Z,100617.16
2023-07-12T18:21:49.480Z,100614.22
2023-07-12T18:24:34.570Z,100620.44
2023-07-12T18:27:27.481Z,100623.56
2023-07-12T18:30:13.063Z,100627.25
2023-07-12T18:33:04.512Z,100626.69
2023-07-12T18:35:59.477Z,100632.81
2023-07-12T18:38:53.488Z,100628.78
2023-07-12T18:41:45.527Z,100633.88
2023-07-12T18:44:32.169Z,100632.63
2023-07-12T18:47:24.531Z,100632.06
2023-07-12T18:50:09.815Z,100632.22
2023-07-12T18:53:03.498Z,100637.41
2023-07-12T18:55:55.482Z,100627.06
2023-07-12T18:58:47.528Z,100631.38
2023-07-12T19:01:40.506Z,100624.16
2023-07-12T19:04:38.483Z,100632.44
2023-07-12T19:07:35.597Z,100628.09
2023-07-12T19:10:28.493Z,100626.81
2023-07-12T19:13:15.638Z,100628.25
2023-07-12T19:16:07.602Z,100620.22
2023-07-12T19:18:52.788Z,100638.00
2023-07-12T19:21:46.511Z,100636.47
2023-07-12T19:24:38.514Z,100631.56
2023-07-12T19:27:42.718Z,100633.59
2023-07-12T19:30:29.348Z,100640.75
2023-07-12T19:33:22.501Z,100645.34
2023-07-12T19:36:09.318Z,100643.38
2023-07-12T19:39:01.503Z,100647.59
2023-07-12T19:41:54.596Z,100649.72
2023-07-12T19:44:46.515Z,100654.47
2023-07-12T19:47:38.582Z,100649.75
2023-07-12T19:50:30.495Z,100672.06
2023-07-12T19:53:27.690Z,100670.31
2023-07-12T19:56:19.498Z,100679.44
2023-07-12T19:59:11.526Z,100670.78
2023-07-12T20:01:56.570Z,100674.88
2023-07-12T20:04:47.535Z,100686.03
2023-07-12T20:07:39.394Z,100696.72
2023-07-12T20:10:30.529Z,100687.81
2023-07-12T20:13:22.519Z,100698.03
2023-07-12T20:16:14.514Z,100702.38
2023-07-12T20:19:06.528Z,100699.53
2023-07-12T20:21:51.823Z,100698.91
2023-07-12T20:24:43.524Z,100705.72
2023-07-12T20:27:33.041Z,100707.72
2023-07-12T20:30:25.536Z,100707.84
2023-07-12T20:33:17.530Z,100718.88
2023-07-12T20:36:08.730Z,100723.56
2023-07-12T20:39:00.541Z,100725.09
2023-07-12T20:41:45.230Z,100726.75
2023-07-12T20:44:36.526Z,100723.78
2023-07-12T20:47:23.281Z,100732.31
2023-07-12T20:50:14.549Z,100728.06
2023-07-12T20:53:06.351Z,100734.63
2023-07-12T20:55:59.521Z,100735.44
2023-07-12T20:58:44.794Z,100739.75
2023-07-12T21:01:38.744Z,100742.75
2023-07-12T21:04:30.774Z,100746.13
2023-07-12T21:07:30.705Z,100762.00
2023-07-12T21:10:19.281Z,100758.22
2023-07-12T21:13:10.699Z,100761.50
2023-07-12T21:16:04.274Z,100764.00
2023-07-12T21:18:58.702Z,100763.03
2023-07-12T21:21:50.810Z,100773.03
2023-07-12T21:24:36.230Z,100774.84
2023-07-12T21:27:28.699Z,100773.03
2023-07-12T21:30:13.921Z,100781.41
2023-07-12T21:33:05.743Z,100784.13
2023-07-12T21:35:54.044Z,100783.31
2023-07-12T21:38:45.720Z,100776.03
2023-07-12T21:41:30.843Z,100794.97
2023-07-12T21:44:22.724Z,100788.75
2023-07-12T21:47:11.776Z,100789.91
2023-07-12T21:50:03.746Z,100804.63
2023-07-12T21:52:49.080Z,100802.97
2023-07-12T21:55:40.748Z,100815.81
2023-07-12T21:58:25.954Z,100808.44
2023-07-12T22:01:20.791Z,100812.44
2023-07-12T22:04:05.943Z,100815.81
2023-07-12T22:07:04.714Z,100810.53
2023-07-12T22:09:50.751Z,100810.53
2023-07-12T22:12:42.844Z,100829.69
2023-07-12T22:15:29.194Z,100834.22
2023-07-12T22:18:21.888Z,100825.56
2023-07-12T22:21:16.042Z,100830.56
2023-07-12T22:24:07.734Z,100831.97
2023-07-12T22:26:52.927Z,100835.31
2023-07-12T22:29:45.759Z,100833.41
2023-07-12T22:32:31.221Z,100839.28
2023-07-12T22:35:23.738Z,100842.59
2023-07-12T22:38:15.753Z,100852.16
2023-07-12T22:41:03.278Z,100857.72
2023-07-12T22:43:55.763Z,100860.00
2023-07-12T22:46:47.783Z,100859.81
2023-07-12T22:49:32.968Z,100858.78
2023-07-12T22:52:26.738Z,100860.25
2023-07-12T22:55:13.251Z,100863.78
2023-07-12T22:58:05.753Z,100864.03
2023-07-12T23:00:51.048Z,100861.75
2023-07-12T23:03:42.800Z,100868.34
2023-07-12T23:06:34.942Z,100858.06
2023-07-12T23:09:26.744Z,100868.38
2023-07-12T23:12:14.488Z,100869.63
2023-07-12T23:15:06.772Z,100867.56
2023-07-12T23:17:58.777Z,100862.41
2023-07-12T23:20:43.938Z,100869.63
2023-07-12T23:23:35.594Z,100871.09
2023-07-12T23:26:20.917Z,100873.78
2023-07-12T23:29:12.593Z,100874.38
2023-07-12T23:31:57.381Z,100879.97
2023-07-12T23:34:49.599Z,100876.22
2023-07-12T23:37:36.525Z,100884.50
2023-07-12T23:40:30.622Z,100890.69
2023-07-12T23:43:24.707Z,100902.03
2023-07-12T23:46:10.086Z,100887.78
2023-07-12T23:49:02.603Z,100888.19
2023-07-12T23:51:47.570Z,100893.56
2023-07-12T23:54:39.605Z,100896.84
2023-07-12T23:57:25.114Z,100891.91
